Terminal Aerodrome Forecast
Issued by NWS

Home | Current Version | Previous Version | Graphics & Text | Print | Product List | Glossary On
Versions: 1 2 3 4 5 6 7 8 9 10 11 12 13
000
FTUS43 KICT 011135
TAFSLN
TAF
KSLN 011135Z 0112/0212 21005KT P6SM SKC
      TEMPO 0112/0113 4SM BR
     FM011800 18011KT P6SM SCT050=

USA.gov is the U.S. government's official web portal to all federal, state and local government web resources and services.